Time;durP1;ratioP1;P1;durP2;ratioP2;P2;SDS_P1;SDS_P2;PMS_P1;PMS_P2;Temp;Humidity;BMP_temperature;BMP_pressure;BME280_temperature;BME280_humidity;BME280_pressure;Samples;Min_cycle;Max_cycle;Signal;HPM_P1;HPM_P2
2021/03/21 00:02:20;;;;;;;9.75;6.78;;;9.00;99.90;;;;;;1860538;76;21094;-69
2021/03/21 00:04:47;;;;;;;8.23;6.75;;;9.00;99.90;;;;;;1860419;76;21288;-69
2021/03/21 00:07:15;;;;;;;8.83;6.95;;;9.00;99.90;;;;;;1861029;76;21198;-69
2021/03/21 00:09:42;;;;;;;12.05;6.92;;;9.10;99.90;;;;;;1855865;76;21234;-70
2021/03/21 00:12:10;;;;;;;9.55;7.20;;;9.10;99.90;;;;;;1858581;76;21154;-70
2021/03/21 00:14:38;;;;;;;10.00;7.58;;;9.10;99.90;;;;;;1859879;76;21136;-70
2021/03/21 00:17:06;;;;;;;10.55;8.05;;;9.10;99.90;;;;;;1856595;76;21539;-68
2021/03/21 00:19:33;;;;;;;12.73;8.20;;;9.00;99.90;;;;;;1856994;76;21100;-69
2021/03/21 00:22:01;;;;;;;9.68;7.17;;;9.00;99.90;;;;;;1863197;76;21484;-70
2021/03/21 00:24:28;;;;;;;11.43;6.37;;;8.90;99.90;;;;;;1863733;76;21034;-70
2021/03/21 00:26:56;;;;;;;7.20;4.90;;;8.90;99.90;;;;;;1860640;76;21100;-70
2021/03/21 00:29:23;;;;;;;5.60;4.15;;;8.90;99.90;;;;;;1858772;76;21136;-69
2021/03/21 00:31:51;;;;;;;8.38;4.10;;;8.90;99.90;;;;;;1856613;76;21188;-70
2021/03/21 00:34:18;;;;;;;5.75;4.03;;;8.90;99.90;;;;;;1859624;76;21222;-70
2021/03/21 00:36:46;;;;;;;6.75;3.90;;;8.90;99.90;;;;;;1859295;76;21132;-69
2021/03/21 00:39:13;;;;;;;6.28;4.00;;;9.00;99.90;;;;;;1861666;75;21055;-70
2021/03/21 00:41:41;;;;;;;8.23;4.20;;;8.90;99.90;;;;;;1860018;76;21045;-70
2021/03/21 00:44:08;;;;;;;6.30;4.30;;;9.00;99.90;;;;;;1858571;76;21504;-69
2021/03/21 00:46:36;;;;;;;7.47;4.47;;;9.00;99.90;;;;;;1856054;76;21524;-69
2021/03/21 00:49:04;;;;;;;7.30;4.62;;;9.00;99.90;;;;;;1854947;76;21179;-69
2021/03/21 00:51:31;;;;;;;8.85;4.87;;;8.90;99.90;;;;;;1858716;76;21206;-70
2021/03/21 00:53:59;;;;;;;6.83;4.80;;;8.90;99.90;;;;;;1858957;76;21160;-70
2021/03/21 00:56:38;;;;;;;11.12;5.53;;;9.00;99.90;;;;;;1860297;76;21093;-70
2021/03/21 00:59:06;;;;;;;8.70;5.85;;;9.00;99.90;;;;;;1855497;76;21204;-68
2021/03/21 01:01:34;;;;;;;9.15;6.28;;;9.00;99.90;;;;;;1855555;76;21138;-68
2021/03/21 01:04:02;;;;;;;9.73;6.55;;;9.10;99.90;;;;;;1860847;76;21167;-68
2021/03/21 01:06:30;;;;;;;10.45;7.83;;;9.10;99.90;;;;;;1855624;76;21268;-67
2021/03/21 01:09:00;;;;;;;10.35;7.78;;;9.20;99.90;;;;;;1860669;75;21590;-68
2021/03/21 01:11:33;;;;;;;12.15;8.43;;;9.20;99.90;;;;;;1855582;76;21246;-68
2021/03/21 01:14:01;;;;;;;13.78;8.53;;;9.10;99.90;;;;;;1859740;76;21913;-68
2021/03/21 01:16:38;;;;;;;13.83;9.55;;;9.10;99.90;;;;;;1859596;76;21086;-67
2021/03/21 01:19:08;;;;;;;12.90;9.25;;;9.10;99.90;;;;;;1861253;76;21234;-68
2021/03/21 01:21:43;;;;;;;11.48;9.55;;;9.20;99.90;;;;;;1858943;76;21053;-68
2021/03/21 01:24:06;;;;;;;11.33;8.95;;;9.10;99.90;;;;;;1856199;76;21183;-67
2021/03/21 01:26:33;;;;;;;13.90;10.43;;;9.10;99.90;;;;;;1856777;76;21084;-68
2021/03/21 01:29:01;;;;;;;12.23;9.55;;;9.10;99.90;;;;;;1856266;75;21349;-69
2021/03/21 01:31:28;;;;;;;15.55;9.80;;;9.10;99.90;;;;;;1860672;76;21130;-67
2021/03/21 01:33:56;;;;;;;11.85;9.48;;;9.10;99.90;;;;;;1856147;76;21129;-69
2021/03/21 01:36:29;;;;;;;15.48;10.58;;;9.10;99.90;;;;;;1863725;76;21631;-68
2021/03/21 01:38:58;;;;;;;13.53;9.40;;;9.20;99.90;;;;;;1855856;75;21062;-69
2021/03/21 01:41:29;;;;;;;13.93;9.75;;;9.10;99.90;;;;;;1859512;76;21282;-70
2021/03/21 01:43:57;;;;;;;12.47;10.00;;;9.20;99.90;;;;;;1861719;76;21086;-67
2021/03/21 01:46:36;;;;;;;15.70;9.98;;;9.20;99.90;;;;;;1861236;76;21187;-67
2021/03/21 01:49:06;;;;;;;16.25;10.18;;;9.20;99.90;;;;;;1858385;76;22164;-68
2021/03/21 01:51:37;;;;;;;17.98;13.15;;;9.10;99.90;;;;;;1862581;76;21097;-67
2021/03/21 01:54:07;;;;;;;21.65;14.47;;;9.10;99.90;;;;;;1858195;76;21145;-67
2021/03/21 01:56:37;;;;;;;22.62;15.72;;;9.20;99.90;;;;;;1856781;76;21563;-67
2021/03/21 01:59:13;;;;;;;26.23;16.55;;;9.10;99.90;;;;;;1859493;76;21276;-67
2021/03/21 02:01:42;;;;;;;26.17;16.25;;;9.20;99.90;;;;;;1860168;75;21388;-66
2021/03/21 02:04:10;;;;;;;24.90;16.65;;;9.30;99.90;;;;;;1855527;76;21167;-69
2021/03/21 02:06:43;;;;;;;24.63;16.67;;;9.20;99.90;;;;;;1860861;76;21327;-68
2021/03/21 02:09:26;;;;;;;28.77;16.82;;;9.30;99.90;;;;;;1859449;75;21192;-67
2021/03/21 02:12:11;;;;;;;25.55;16.77;;;9.30;99.90;;;;;;1856541;76;21152;-68
2021/03/21 02:14:58;;;;;;;29.23;16.85;;;9.30;99.90;;;;;;1860833;76;21191;-69
2021/03/21 02:17:51;;;;;;;27.00;16.55;;;9.30;99.90;;;;;;1851928;76;21116;-68
2021/03/21 02:20:51;;;;;;;26.97;16.20;;;9.30;99.90;;;;;;1860474;76;21186;-67
2021/03/21 02:23:38;;;;;;;28.05;15.53;;;9.30;99.90;;;;;;1855816;76;21113;-68
2021/03/21 02:26:23;;;;;;;26.25;16.70;;;9.30;99.90;;;;;;1861303;76;21114;-67
2021/03/21 02:29:15;;;;;;;20.90;14.68;;;9.20;99.90;;;;;;1856108;75;21195;-67
2021/03/21 02:31:51;;;;;;;26.57;14.77;;;9.30;99.90;;;;;;1860897;76;21109;-67
2021/03/21 02:34:37;;;;;;;24.50;13.95;;;9.30;99.90;;;;;;1859739;76;21436;-67
2021/03/21 02:37:13;;;;;;;22.42;14.10;;;9.30;99.90;;;;;;1857266;76;21547;-69
2021/03/21 02:39:52;;;;;;;23.15;14.28;;;9.40;99.90;;;;;;1837219;76;21209;-68
2021/03/21 02:42:25;;;;;;;18.98;12.70;;;9.40;99.90;;;;;;1862599;76;21112;-67
2021/03/21 02:44:58;;;;;;;19.05;12.37;;;9.40;99.90;;;;;;1862677;76;21085;-67
2021/03/21 02:47:29;;;;;;;21.85;13.13;;;9.50;99.90;;;;;;1854144;76;21202;-68
2021/03/21 02:50:00;;;;;;;22.15;13.03;;;9.50;99.90;;;;;;1865668;76;21188;-67
2021/03/21 02:52:34;;;;;;;18.48;11.15;;;9.50;99.90;;;;;;1860614;76;21120;-67
2021/03/21 02:55:04;;;;;;;21.05;11.45;;;9.40;99.90;;;;;;1859051;76;21494;-68
2021/03/21 02:57:38;;;;;;;16.93;10.38;;;9.40;99.90;;;;;;1853080;76;21118;-68
2021/03/21 03:00:07;;;;;;;19.62;10.23;;;9.40;99.90;;;;;;1864243;76;21079;-69
2021/03/21 03:02:47;;;;;;;23.75;10.08;;;9.50;99.90;;;;;;1862598;76;21091;-66
2021/03/21 03:05:33;;;;;;;18.02;8.35;;;9.50;99.90;;;;;;1855906;76;21140;-68
2021/03/21 03:08:18;;;;;;;11.25;5.15;;;9.40;99.90;;;;;;1859868;75;21106;-69
2021/03/21 03:11:07;;;;;;;7.03;3.67;;;9.40;99.90;;;;;;1862640;76;21552;-69
2021/03/21 03:13:43;;;;;;;8.80;3.15;;;9.40;99.90;;;;;;1856760;76;21144;-69
2021/03/21 03:16:22;;;;;;;5.12;2.92;;;9.40;99.90;;;;;;1862629;76;21195;-68
2021/03/21 03:19:10;;;;;;;5.67;2.47;;;9.30;99.90;;;;;;1849898;76;21178;-69
2021/03/21 03:21:46;;;;;;;5.70;2.10;;;9.30;99.90;;;;;;1833816;76;21125;-68
2021/03/21 03:24:34;;;;;;;6.62;1.72;;;9.30;99.90;;;;;;1859595;76;21129;-68
2021/03/21 03:27:07;;;;;;;9.58;2.30;;;9.40;99.90;;;;;;1854234;76;21101;-67
2021/03/21 03:29:44;;;;;;;8.65;2.10;;;9.30;99.90;;;;;;1856080;75;21144;-69
2021/03/21 03:32:14;;;;;;;10.80;2.75;;;9.30;99.90;;;;;;1855006;76;21109;-68
2021/03/21 03:34:47;;;;;;;10.63;2.27;;;9.30;99.90;;;;;;1861191;76;21640;-68
2021/03/21 03:37:15;;;;;;;14.63;3.00;;;9.30;99.90;;;;;;1858045;76;21171;-69
2021/03/21 03:39:43;;;;;;;13.80;3.10;;;9.30;99.90;;;;;;1858315;75;21133;-67
2021/03/21 03:42:25;;;;;;;12.85;2.98;;;9.30;99.90;;;;;;1862496;76;21023;-67
2021/03/21 03:45:08;;;;;;;15.03;2.80;;;9.40;99.90;;;;;;1863581;76;21471;-69
2021/03/21 03:47:39;;;;;;;12.03;2.85;;;9.40;99.90;;;;;;1861067;75;21649;-67
2021/03/21 03:50:18;;;;;;;10.30;2.42;;;9.40;99.90;;;;;;1854635;76;21105;-68
2021/03/21 03:53:01;;;;;;;10.20;2.85;;;9.30;99.90;;;;;;1857552;76;21066;-68
2021/03/21 03:55:34;;;;;;;9.20;2.30;;;9.30;99.90;;;;;;1856769;76;21210;-69
2021/03/21 03:58:05;;;;;;;12.75;3.15;;;9.30;99.90;;;;;;1846867;75;21493;-68
2021/03/21 04:00:44;;;;;;;10.18;3.20;;;9.30;99.90;;;;;;1858079;76;21156;-67
2021/03/21 04:03:27;;;;;;;12.18;3.45;;;9.40;99.90;;;;;;1858160;76;21421;-67
2021/03/21 04:06:03;;;;;;;16.55;3.70;;;9.30;99.90;;;;;;1834631;76;21125;-67
2021/03/21 04:08:33;;;;;;;12.65;3.67;;;9.30;99.90;;;;;;1858848;76;21133;-67
2021/03/21 04:11:04;;;;;;;12.45;3.65;;;9.30;99.90;;;;;;1865140;76;21503;-70
2021/03/21 04:13:43;;;;;;;14.98;3.67;;;9.40;99.90;;;;;;1861562;76;21113;-68
2021/03/21 04:16:13;;;;;;;17.48;3.98;;;9.30;99.90;;;;;;1861298;76;21097;-69
2021/03/21 04:18:49;;;;;;;18.57;3.95;;;9.40;99.90;;;;;;1859111;75;21672;-69
2021/03/21 04:21:23;;;;;;;11.60;3.35;;;9.40;99.90;;;;;;1859201;76;21035;-69
2021/03/21 04:23:53;;;;;;;9.88;3.15;;;9.30;99.90;;;;;;1859809;76;21066;-68
2021/03/21 04:26:27;;;;;;;11.65;3.08;;;9.40;99.90;;;;;;1856855;76;21162;-67
2021/03/21 04:28:57;;;;;;;12.05;2.60;;;9.30;99.90;;;;;;1851163;75;21113;-68
2021/03/21 04:31:27;;;;;;;11.55;2.85;;;9.30;99.90;;;;;;1859537;76;21230;-67
2021/03/21 04:33:57;;;;;;;11.33;2.37;;;9.30;99.90;;;;;;1859651;76;21582;-68
2021/03/21 04:36:28;;;;;;;9.60;2.12;;;9.30;99.90;;;;;;1857128;76;21504;-67
2021/03/21 04:39:08;;;;;;;7.65;2.15;;;9.30;99.90;;;;;;1857159;76;21218;-68
2021/03/21 04:41:41;;;;;;;6.72;1.57;;;9.20;99.90;;;;;;1856354;76;21075;-68
2021/03/21 04:44:12;;;;;;;11.35;2.20;;;9.20;99.90;;;;;;1854832;76;21164;-68
2021/03/21 04:46:54;;;;;;;10.82;2.47;;;9.20;99.90;;;;;;1857653;76;21135;-67
2021/03/21 04:49:22;;;;;;;13.08;2.72;;;9.20;99.90;;;;;;1853840;76;21074;-69
2021/03/21 04:51:53;;;;;;;10.80;2.55;;;9.20;99.90;;;;;;1860765;76;21656;-67
2021/03/21 04:54:25;;;;;;;21.85;2.90;;;9.20;99.90;;;;;;1857334;76;21093;-67
2021/03/21 04:57:18;;;;;;;11.83;2.40;;;9.20;99.90;;;;;;1861631;76;21134;-67
2021/03/21 04:59:46;;;;;;;14.45;3.20;;;9.20;99.90;;;;;;1859310;75;21126;-68
2021/03/21 05:02:20;;;;;;;11.88;2.35;;;9.20;99.90;;;;;;1859961;76;21135;-68
2021/03/21 05:04:50;;;;;;;19.17;2.52;;;9.20;99.90;;;;;;1861340;76;21124;-68
2021/03/21 05:07:30;;;;;;;14.85;2.83;;;9.30;99.90;;;;;;1850854;76;21030;-66
2021/03/21 05:10:20;;;;;;;16.80;3.12;;;9.30;99.90;;;;;;1859280;76;21403;-67
2021/03/21 05:13:02;;;;;;;20.95;4.00;;;9.30;99.90;;;;;;1859273;76;21206;-69
2021/03/21 05:15:31;;;;;;;;;;;9.20;99.90;;;;;;1815284;76;21199;-68
2021/03/21 05:18:34;;;;;;;17.67;2.98;;;9.20;99.90;;;;;;1857207;75;20174;-68
2021/03/21 05:21:27;;;;;;;21.55;3.33;;;9.10;99.90;;;;;;1856221;76;21126;-70
2021/03/21 05:24:10;;;;;;;22.80;4.70;;;9.10;99.90;;;;;;1857124;76;21148;-69
2021/03/21 05:26:46;;;;;;;25.17;4.22;;;9.10;99.90;;;;;;1860814;76;21234;-69
2021/03/21 05:29:23;;;;;;;29.42;4.83;;;9.10;99.90;;;;;;1863577;75;21125;-69
2021/03/21 05:31:51;;;;;;;32.65;4.78;;;9.10;99.90;;;;;;1859738;76;21172;-68
2021/03/21 05:34:20;;;;;;;39.88;5.10;;;9.10;99.90;;;;;;1858211;76;21140;-67
2021/03/21 05:37:02;;;;;;;26.62;5.10;;;9.00;99.90;;;;;;1859804;76;21155;-67
2021/03/21 05:39:36;;;;;;;;;;;9.00;99.90;;;;;;1862552;76;21121;-68
2021/03/21 05:42:40;;;;;;;31.85;5.17;;;9.00;99.90;;;;;;1862814;76;20795;-69
2021/03/21 05:45:32;;;;;;;26.25;5.35;;;9.00;99.90;;;;;;1856682;76;21053;-68
2021/03/21 05:48:08;;;;;;;34.47;5.53;;;9.00;99.90;;;;;;1856855;75;21156;-68
2021/03/21 05:50:59;;;;;;;33.67;6.33;;;8.90;99.90;;;;;;1857843;76;21409;-68
2021/03/21 05:53:46;;;;;;;32.10;5.92;;;8.90;99.90;;;;;;1856817;76;21165;-68
2021/03/21 05:56:34;;;;;;;36.53;6.28;;;8.90;99.90;;;;;;1827853;76;21179;-68
2021/03/21 05:59:08;;;;;;;31.85;6.10;;;8.90;99.90;;;;;;1861099;75;21082;-67
2021/03/21 06:01:44;;;;;;;37.78;6.42;;;8.90;99.90;;;;;;1777214;76;21163;-68
2021/03/21 06:04:33;;;;;;;34.58;6.03;;;8.90;99.90;;;;;;1859600;76;21657;-67
2021/03/21 06:07:06;;;;;;;39.60;5.90;;;8.90;99.90;;;;;;1858209;76;21120;-68
2021/03/21 06:09:52;;;;;;;38.25;6.95;;;8.90;99.90;;;;;;1857559;76;21138;-68
2021/03/21 06:12:45;;;;;;;41.60;6.97;;;8.90;99.90;;;;;;1851694;76;21712;-68
2021/03/21 06:15:32;;;;;;;41.18;6.85;;;8.80;99.90;;;;;;1859176;76;21185;-68
2021/03/21 06:18:19;;;;;;;38.33;7.12;;;8.80;99.90;;;;;;1856925;75;21141;-69
2021/03/21 06:21:09;;;;;;;38.13;7.50;;;8.90;99.90;;;;;;1858171;76;21183;-67
2021/03/21 06:23:55;;;;;;;46.90;8.43;;;8.90;99.90;;;;;;1856698;76;21163;-68
2021/03/21 06:26:25;;;;;;;50.08;8.68;;;8.90;99.90;;;;;;1856756;76;21143;-67
2021/03/21 06:29:11;;;;;;;56.48;8.65;;;8.90;99.90;;;;;;1854086;76;21575;-67
2021/03/21 06:31:47;;;;;;;41.60;7.80;;;8.90;99.90;;;;;;1856732;76;21166;-67
2021/03/21 06:34:29;;;;;;;51.30;8.68;;;8.90;99.90;;;;;;1857941;76;21123;-67
2021/03/21 06:37:01;;;;;;;;;;;8.90;99.90;;;;;;1861724;76;21034;-68
2021/03/21 06:39:37;;;;;;;44.55;8.13;;;8.90;99.90;;;;;;1862801;75;20278;-66
2021/03/21 06:42:24;;;;;;;51.65;8.63;;;9.00;99.90;;;;;;1860015;76;21087;-67
2021/03/21 06:45:04;;;;;;;46.02;7.85;;;9.00;99.90;;;;;;1858193;76;21157;-67
2021/03/21 06:47:47;;;;;;;60.63;10.48;;;9.00;99.90;;;;;;1860979;76;21058;-67
2021/03/21 06:50:20;;;;;;;41.70;6.58;;;9.00;99.90;;;;;;1860924;75;21093;-67
2021/03/21 06:52:54;;;;;;;52.93;8.10;;;9.00;99.90;;;;;;1862689;76;21552;-68
2021/03/21 06:55:39;;;;;;;41.73;8.43;;;8.90;99.90;;;;;;1864916;75;21083;-68
2021/03/21 06:58:16;;;;;;;54.40;9.10;;;8.90;99.90;;;;;;1866755;75;21799;-67
2021/03/21 07:01:14;;;;;;;44.18;8.88;;;9.00;99.90;;;;;;1850907;76;21133;-68
2021/03/21 07:04:13;;;;;;;48.42;8.55;;;9.00;99.90;;;;;;1860062;76;21112;-69
2021/03/21 07:07:06;;;;;;;40.58;7.87;;;8.90;99.90;;;;;;1867559;76;21058;-69
2021/03/21 07:10:01;;;;;;;50.50;8.68;;;8.90;99.90;;;;;;1865285;75;21210;-69
2021/03/21 07:12:51;;;;;;;49.30;8.93;;;8.90;99.90;;;;;;1856233;75;21904;-68
2021/03/21 07:15:44;;;;;;;51.95;8.43;;;8.90;99.90;;;;;;1861665;75;21109;-67
2021/03/21 07:18:32;;;;;;;44.80;8.53;;;8.90;99.90;;;;;;1869446;75;21198;-68
2021/03/21 07:21:33;;;;;;;64.90;10.25;;;8.90;99.90;;;;;;1853582;76;21222;-68
2021/03/21 07:24:28;;;;;;;50.10;9.38;;;8.90;99.90;;;;;;1860131;76;21125;-68
2021/03/21 07:27:17;;;;;;;48.68;8.25;;;8.90;99.90;;;;;;1857612;76;21054;-68
2021/03/21 07:29:53;;;;;;;50.15;8.73;;;8.90;99.90;;;;;;1860084;76;21259;-68
2021/03/21 07:32:39;;;;;;;50.25;9.00;;;8.90;99.90;;;;;;1856704;76;21175;-67
2021/03/21 07:35:22;;;;;;;62.67;10.98;;;8.90;99.90;;;;;;1859901;76;21086;-67
2021/03/21 07:37:56;;;;;;;;;;;9.00;99.90;;;;;;1870494;76;21167;-67
2021/03/21 07:40:39;;;;;;;58.25;9.90;;;9.00;99.90;;;;;;1862844;76;20439;-68
2021/03/21 07:43:45;;;;;;;62.43;11.20;;;9.00;99.90;;;;;;1857549;76;21105;-67
2021/03/21 07:46:33;;;;;;;54.77;9.45;;;9.00;99.90;;;;;;1860806;76;21602;-67
2021/03/21 07:49:13;;;;;;;48.08;8.95;;;8.90;99.90;;;;;;1863290;76;21140;-68
2021/03/21 07:51:55;;;;;;;48.23;9.25;;;9.00;99.90;;;;;;1869680;75;21527;-68
2021/03/21 07:54:38;;;;;;;54.83;10.85;;;9.00;99.90;;;;;;1872848;75;21198;-68
2021/03/21 07:57:06;;;;;;;;;;;9.10;99.90;;;;;;1870466;76;21272;-67
2021/03/21 07:59:36;;;;;;;57.25;10.30;;;9.10;99.90;;;;;;1869215;75;20445;-67
2021/03/21 08:02:03;;;;;;;54.95;9.95;;;9.10;99.90;;;;;;1865454;75;21090;-67
2021/03/21 08:04:33;;;;;;;56.68;9.70;;;9.20;99.90;;;;;;1863155;75;21102;-68
2021/03/21 08:07:03;;;;;;;61.18;11.30;;;9.20;99.90;;;;;;1868712;75;21656;-67
2021/03/21 08:09:38;;;;;;;60.17;11.63;;;9.20;99.90;;;;;;1860016;76;21204;-67
2021/03/21 08:12:22;;;;;;;57.45;10.13;;;9.30;99.90;;;;;;1861745;75;21091;-68
2021/03/21 08:15:01;;;;;;;62.15;10.00;;;9.30;99.90;;;;;;1851363;76;21257;-68
2021/03/21 08:17:32;;;;;;;51.35;9.93;;;9.20;99.90;;;;;;1865416;76;21112;-70
2021/03/21 08:20:02;;;;;;;58.25;9.55;;;9.20;99.90;;;;;;1861617;75;21119;-70
2021/03/21 08:22:33;;;;;;;60.38;11.12;;;9.20;99.90;;;;;;1866175;75;21097;-70
2021/03/21 08:25:03;;;;;;;56.10;10.05;;;9.30;99.90;;;;;;1858325;76;21175;-67
2021/03/21 08:27:33;;;;;;;58.78;10.30;;;9.30;99.90;;;;;;1862106;75;21157;-70
2021/03/21 08:30:15;;;;;;;54.35;9.68;;;9.30;99.90;;;;;;1860681;76;21153;-70
2021/03/21 08:32:58;;;;;;;53.25;10.20;;;9.40;99.90;;;;;;1856831;76;21069;-70
2021/03/21 08:35:34;;;;;;;52.93;10.08;;;9.30;99.90;;;;;;1859559;76;21036;-69
2021/03/21 08:38:21;;;;;;;54.23;9.63;;;9.40;99.90;;;;;;1856195;76;21548;-69
2021/03/21 08:40:52;;;;;;;43.68;8.18;;;9.40;99.90;;;;;;1862221;76;21717;-69
2021/03/21 08:43:28;;;;;;;55.00;9.35;;;9.30;99.90;;;;;;1860980;75;21009;-68
2021/03/21 08:46:04;;;;;;;46.80;9.35;;;9.40;99.90;;;;;;1863074;76;21152;-69
2021/03/21 08:48:37;;;;;;;50.73;9.43;;;9.50;99.90;;;;;;1862248;76;21456;-70
2021/03/21 08:51:13;;;;;;;61.02;11.43;;;9.50;99.90;;;;;;1865046;75;22151;-68
2021/03/21 08:53:47;;;;;;;54.35;10.32;;;9.60;99.90;;;;;;1863730;76;21172;-69
2021/03/21 08:56:38;;;;;;;55.00;10.40;;;9.70;99.90;;;;;;1845202;76;21497;-68
2021/03/21 08:59:27;;;;;;;51.00;9.95;;;9.70;99.90;;;;;;1869209;76;21149;-68
2021/03/21 09:02:19;;;;;;;48.05;9.68;;;9.70;99.90;;;;;;1862476;76;21493;-68
2021/03/21 09:05:01;;;;;;;58.28;10.98;;;9.70;99.90;;;;;;1864239;76;21633;-69
2021/03/21 09:07:35;;;;;;;;;;;9.70;99.90;;;;;;1859125;76;21559;-69
2021/03/21 09:10:08;;;;;;;53.40;10.40;;;9.70;99.90;;;;;;1864840;75;20172;-69
2021/03/21 09:12:41;;;;;;;57.65;10.65;;;9.70;99.90;;;;;;1850624;76;21575;-68
2021/03/21 09:15:24;;;;;;;53.83;10.32;;;9.70;99.90;;;;;;1860575;76;21065;-68
2021/03/21 09:18:19;;;;;;;49.58;9.75;;;9.70;99.90;;;;;;1861885;75;22276;-68
2021/03/21 09:20:58;;;;;;;69.85;11.50;;;9.70;99.90;;;;;;1866220;76;21085;-69
2021/03/21 09:23:50;;;;;;;51.37;9.33;;;9.60;99.90;;;;;;1859318;76;21082;-68
2021/03/21 09:26:21;;;;;;;58.33;10.88;;;9.70;99.90;;;;;;1864234;76;21121;-68
2021/03/21 09:28:51;;;;;;;64.50;10.58;;;9.70;99.90;;;;;;1854361;76;21144;-68
2021/03/21 09:31:20;;;;;;;63.20;10.30;;;9.60;99.90;;;;;;1858285;76;21096;-68
2021/03/21 09:33:53;;;;;;;56.45;10.60;;;9.60;99.90;;;;;;1863857;75;21081;-68
2021/03/21 09:36:32;;;;;;;47.85;9.98;;;9.70;99.90;;;;;;1853872;76;21203;-69
2021/03/21 09:39:18;;;;;;;52.25;9.75;;;9.80;99.90;;;;;;1860504;76;21162;-69
2021/03/21 09:41:48;;;;;;;53.98;9.98;;;9.80;99.90;;;;;;1855822;76;21419;-71
2021/03/21 09:44:36;;;;;;;59.20;9.40;;;9.90;99.90;;;;;;1867322;75;21118;-71
2021/03/21 09:47:06;;;;;;;45.12;8.75;;;9.80;99.90;;;;;;1849421;76;21119;-71
2021/03/21 09:49:42;;;;;;;56.18;9.75;;;9.90;99.90;;;;;;1821622;76;21139;-68
2021/03/21 09:52:29;;;;;;;54.53;11.18;;;10.00;99.90;;;;;;1855820;76;22057;-71
2021/03/21 09:55:22;;;;;;;52.90;10.35;;;10.00;99.90;;;;;;1859411;75;21171;-69
2021/03/21 09:58:11;;;;;;;59.80;10.43;;;10.00;99.90;;;;;;1865787;75;21235;-69
2021/03/21 10:00:41;;;;;;;58.95;10.85;;;10.10;99.90;;;;;;1858999;76;21223;-69
2021/03/21 10:03:23;;;;;;;50.15;9.38;;;10.30;99.90;;;;;;1861245;76;21607;-69
2021/03/21 10:05:57;;;;;;;50.70;9.43;;;10.40;99.90;;;;;;1859503;76;21129;-70
2021/03/21 10:08:36;;;;;;;52.67;10.00;;;10.50;99.90;;;;;;1861957;75;21152;-70
2021/03/21 10:11:07;;;;;;;55.95;10.00;;;10.50;99.90;;;;;;1865564;76;21251;-68
2021/03/21 10:13:45;;;;;;;53.30;10.10;;;10.60;99.90;;;;;;1856121;75;21634;-69
2021/03/21 10:16:19;;;;;;;44.50;9.25;;;10.60;99.90;;;;;;1855200;76;21543;-68
2021/03/21 10:19:02;;;;;;;52.05;9.88;;;10.60;99.90;;;;;;1853550;76;21121;-70
2021/03/21 10:21:35;;;;;;;55.40;10.03;;;10.70;99.90;;;;;;1861837;76;21070;-69
2021/03/21 10:24:24;;;;;;;56.83;10.05;;;10.70;99.90;;;;;;1855459;76;21559;-68
2021/03/21 10:27:19;;;;;;;57.10;10.05;;;10.70;99.90;;;;;;1861869;76;21273;-69
2021/03/21 10:29:52;;;;;;;46.50;9.10;;;10.60;99.90;;;;;;1859604;76;21153;-69
2021/03/21 10:32:29;;;;;;;51.08;9.00;;;10.60;99.90;;;;;;1857470;75;21288;-70
2021/03/21 10:34:55;;;;;;;53.25;9.40;;;10.60;99.90;;;;;;1859605;76;21092;-70
2021/03/21 10:37:45;;;;;;;43.33;9.73;;;10.70;99.90;;;;;;1860985;76;21556;-69
2021/03/21 10:40:15;;;;;;;50.30;9.80;;;10.80;99.90;;;;;;1859139;76;21264;-69
2021/03/21 10:42:46;;;;;;;59.33;10.65;;;10.90;99.90;;;;;;1853729;76;21074;-69
2021/03/21 10:45:35;;;;;;;47.43;9.15;;;11.00;99.90;;;;;;1860867;75;21582;-68
2021/03/21 10:48:06;;;;;;;46.33;9.75;;;11.00;99.90;;;;;;1855310;76;21153;-68
2021/03/21 10:50:45;;;;;;;51.50;9.63;;;11.00;99.90;;;;;;1869270;75;21162;-69
2021/03/21 10:53:24;;;;;;;44.90;8.70;;;11.10;99.90;;;;;;1870888;75;21618;-69
2021/03/21 10:56:10;;;;;;;55.90;10.40;;;11.10;99.90;;;;;;1861466;76;21140;-69
2021/03/21 10:58:40;;;;;;;38.90;8.60;;;11.00;99.90;;;;;;1851660;76;21177;-69
2021/03/21 11:01:24;;;;;;;40.88;8.68;;;11.00;99.90;;;;;;1870034;75;21196;-68
2021/03/21 11:04:24;;;;;;;51.90;9.50;;;11.00;99.90;;;;;;1862143;75;21683;-69
2021/03/21 11:06:57;;;;;;;39.27;8.33;;;10.90;99.90;;;;;;1859383;75;22379;-69
2021/03/21 11:09:33;;;;;;;49.42;8.80;;;11.00;99.90;;;;;;1857893;75;21665;-69
2021/03/21 11:12:04;;;;;;;48.92;9.28;;;11.10;99.90;;;;;;1859577;75;21529;-69
2021/03/21 11:14:35;;;;;;;54.83;9.18;;;11.30;99.90;;;;;;1864369;75;21178;-69
2021/03/21 11:17:05;;;;;;;48.87;9.13;;;11.40;99.90;;;;;;1862448;75;22411;-68
2021/03/21 11:19:38;;;;;;;51.15;9.73;;;11.40;99.90;;;;;;1861513;75;21659;-69
2021/03/21 11:22:14;;;;;;;38.17;7.85;;;11.40;99.90;;;;;;1867972;75;21142;-69
2021/03/21 11:24:42;;;;;;;38.58;8.18;;;11.40;99.90;;;;;;1850388;76;21200;-69
2021/03/21 11:27:16;;;;;;;47.43;9.03;;;11.50;99.90;;;;;;1865945;76;21199;-69
2021/03/21 11:29:43;;;;;;;49.93;8.70;;;11.60;99.90;;;;;;1862165;75;21466;-69
2021/03/21 11:32:23;;;;;;;35.73;7.65;;;11.70;99.90;;;;;;1863491;76;21316;-69
2021/03/21 11:35:09;;;;;;;42.58;8.58;;;11.80;99.90;;;;;;1867317;75;21066;-67
2021/03/21 11:37:39;;;;;;;42.50;8.70;;;11.80;99.90;;;;;;1866986;75;21641;-68
2021/03/21 11:40:29;;;;;;;43.20;10.05;;;11.90;99.90;;;;;;1865951;75;21054;-68
2021/03/21 11:43:19;;;;;;;41.53;9.23;;;11.90;99.90;;;;;;1866754;75;21219;-69
2021/03/21 11:45:50;;;;;;;43.25;8.48;;;11.80;99.90;;;;;;1862076;76;21109;-68
2021/03/21 11:48:32;;;;;;;55.50;10.45;;;11.80;99.90;;;;;;1863047;75;21677;-71
2021/03/21 11:51:01;;;;;;;46.73;8.45;;;11.80;99.90;;;;;;1861021;76;21121;-69
2021/03/21 11:53:35;;;;;;;42.48;8.35;;;11.70;99.90;;;;;;1868469;75;21159;-68
2021/03/21 11:56:02;;;;;;;;;;;11.60;99.90;;;;;;1868352;75;21071;-67
2021/03/21 11:58:35;;;;;;;48.65;8.83;;;11.60;99.90;;;;;;1868606;75;20376;-68
2021/03/21 12:01:15;;;;;;;35.65;6.97;;;11.70;99.90;;;;;;1868334;75;21574;-68
2021/03/21 12:03:51;;;;;;;42.13;7.50;;;11.70;99.90;;;;;;1863171;75;21575;-71
2021/03/21 12:06:41;;;;;;;36.05;8.05;;;11.70;99.90;;;;;;1867311;75;21177;-68
2021/03/21 12:09:36;;;;;;;45.92;8.45;;;11.70;99.90;;;;;;1865511;75;21118;-68
2021/03/21 12:12:07;;;;;;;42.13;9.78;;;11.70;99.90;;;;;;1864412;76;22003;-68
2021/03/21 12:14:43;;;;;;;40.08;7.90;;;11.70;99.90;;;;;;1861600;75;21046;-68
2021/03/21 12:17:27;;;;;;;45.33;7.45;;;11.70;99.90;;;;;;1863956;75;21099;-68
2021/03/21 12:19:58;;;;;;;42.65;8.00;;;11.80;99.90;;;;;;1866769;75;21066;-68
2021/03/21 12:22:37;;;;;;;44.27;8.08;;;11.70;99.90;;;;;;1863980;75;21116;-67
2021/03/21 12:25:36;;;;;;;43.08;7.67;;;11.80;99.90;;;;;;1863940;76;21531;-69
2021/03/21 12:28:07;;;;;;;41.35;8.08;;;11.80;99.90;;;;;;1864673;75;21067;-69
2021/03/21 12:30:43;;;;;;;35.08;7.60;;;11.90;99.90;;;;;;1869524;76;21500;-68
2021/03/21 12:33:23;;;;;;;38.25;8.20;;;11.90;99.90;;;;;;1867810;75;21702;-68
2021/03/21 12:35:51;;;;;;;37.58;8.00;;;11.90;99.90;;;;;;1863448;76;21176;-70
2021/03/21 12:38:33;;;;;;;41.60;8.20;;;11.80;99.90;;;;;;1869165;76;21208;-70
2021/03/21 12:41:26;;;;;;;41.25;7.92;;;11.70;99.90;;;;;;1823526;75;21124;-68
2021/03/21 12:44:14;;;;;;;39.40;7.25;;;11.80;99.90;;;;;;1863029;75;21167;-70
2021/03/21 12:46:57;;;;;;;44.10;8.33;;;11.70;99.90;;;;;;1860697;75;21069;-69
2021/03/21 12:49:45;;;;;;;42.75;7.42;;;11.80;99.90;;;;;;1866474;75;21285;-68
2021/03/21 12:52:18;;;;;;;32.08;6.67;;;11.80;99.90;;;;;;1864335;75;21113;-68
2021/03/21 12:54:47;;;;;;;35.30;7.75;;;11.80;99.90;;;;;;1865950;75;21104;-68
2021/03/21 12:57:16;;;;;;;38.25;7.83;;;11.80;99.90;;;;;;1863831;75;21204;-68
2021/03/21 12:59:49;;;;;;;27.32;6.53;;;11.80;99.90;;;;;;1868127;75;21116;-67
2021/03/21 13:02:23;;;;;;;35.52;6.90;;;11.80;99.90;;;;;;1858004;76;21145;-66
2021/03/21 13:04:51;;;;;;;47.90;7.35;;;11.70;99.90;;;;;;1862512;75;21178;-68
2021/03/21 13:07:19;;;;;;;36.55;7.42;;;11.70;99.90;;;;;;1862405;75;21144;-68
2021/03/21 13:09:47;;;;;;;37.13;7.12;;;11.60;99.90;;;;;;1862521;75;21540;-68
2021/03/21 13:12:15;;;;;;;37.30;7.35;;;11.60;99.90;;;;;;1866142;75;21233;-67
2021/03/21 13:14:43;;;;;;;39.40;7.58;;;11.50;99.90;;;;;;1865806;75;21585;-67
2021/03/21 13:17:11;;;;;;;34.92;7.50;;;11.50;99.90;;;;;;1865613;75;21754;-67
2021/03/21 13:19:40;;;;;;;38.95;7.28;;;11.40;99.90;;;;;;1865026;76;21642;-67
2021/03/21 13:22:08;;;;;;;35.45;6.62;;;11.40;99.90;;;;;;1864631;75;21123;-69
2021/03/21 13:24:36;;;;;;;24.85;5.72;;;11.50;99.90;;;;;;1865471;75;21196;-73
2021/03/21 13:27:05;;;;;;;27.58;6.35;;;11.60;99.90;;;;;;1867879;75;21125;-70
2021/03/21 13:29:33;;;;;;;37.63;7.65;;;11.70;99.70;;;;;;1863786;76;21223;-72
2021/03/21 13:32:01;;;;;;;37.08;6.90;;;11.80;99.90;;;;;;1865099;76;21119;-70
2021/03/21 13:34:31;;;;;;;32.28;6.67;;;12.10;99.90;;;;;;1867339;75;22120;-70
2021/03/21 13:37:02;;;;;;;27.22;6.35;;;12.60;99.70;;;;;;1865698;75;21220;-70